createdAt,value
2022-10-01T00:01:19.989Z,4.00
2022-10-01T00:03:49.113Z,4.15
2022-10-01T00:06:19.396Z,4.18
2022-10-01T00:08:49.384Z,3.85
2022-10-01T00:11:19.070Z,3.75
2022-10-01T00:13:46.949Z,3.90
2022-10-01T00:16:18.145Z,3.92
2022-10-01T00:18:48.010Z,3.80
2022-10-01T00:21:19.640Z,3.85
2022-10-01T00:23:48.415Z,4.15
2022-10-01T00:26:18.350Z,4.30
2022-10-01T00:28:48.685Z,4.32
2022-10-01T00:31:17.780Z,4.35
2022-10-01T00:33:45.766Z,4.15
2022-10-01T00:36:13.485Z,4.35
2022-10-01T00:38:42.210Z,4.13
2022-10-01T00:41:10.640Z,3.90
2022-10-01T00:43:43.575Z,4.78
2022-10-01T00:46:20.657Z,4.20
2022-10-01T00:48:56.557Z,4.40
2022-10-01T00:51:24.959Z,4.03
2022-10-01T00:53:53.300Z,4.10
2022-10-01T00:56:21.095Z,4.35
2022-10-01T00:58:54.106Z,4.22
2022-10-01T01:01:24.648Z,4.13
2022-10-01T01:03:52.411Z,4.03
2022-10-01T01:06:20.243Z,3.88
2022-10-01T01:08:55.104Z,3.72
2022-10-01T01:11:33.405Z,3.28
2022-10-01T01:14:06.859Z,3.30
2022-10-01T01:16:40.189Z,2.70
2022-10-01T01:19:23.370Z,2.80
2022-10-01T01:21:56.462Z,2.78
2022-10-01T01:24:49.442Z,2.88
2022-10-01T01:27:25.798Z,2.70
2022-10-01T01:30:01.245Z,2.50
2022-10-01T01:32:33.640Z,2.30
2022-10-01T01:35:04.668Z,2.20
2022-10-01T01:37:36.595Z,2.45
2022-10-01T01:40:11.027Z,2.10
2022-10-01T01:42:41.906Z,2.00
2022-10-01T01:45:16.546Z,2.10
2022-10-01T01:47:46.608Z,1.85
2022-10-01T01:50:17.153Z,2.03
2022-10-01T01:52:45.904Z,2.05
2022-10-01T01:55:13.701Z,2.00
2022-10-01T01:57:44.376Z,2.15
2022-10-01T02:00:14.739Z,2.50
2022-10-01T02:02:49.048Z,2.45
2022-10-01T02:05:21.844Z,2.50
2022-10-01T02:08:20.913Z,2.53
2022-10-01T02:11:21.489Z,2.25
2022-10-01T02:14:01.155Z,3.10
2022-10-01T02:16:34.470Z,2.40
2022-10-01T02:19:08.211Z,2.45
2022-10-01T02:21:40.613Z,2.27
2022-10-01T02:24:14.348Z,2.50
2022-10-01T02:26:44.195Z,2.70
2022-10-01T02:29:14.809Z,2.70
2022-10-01T02:31:45.122Z,3.03
2022-10-01T02:34:19.402Z,3.00
2022-10-01T02:36:49.672Z,3.80
2022-10-01T02:39:19.264Z,3.63
2022-10-01T02:41:51.249Z,2.92
2022-10-01T02:44:22.891Z,3.53
2022-10-01T02:46:58.642Z,3.50
2022-10-01T02:49:30.690Z,3.40
2022-10-01T02:52:02.512Z,3.30
2022-10-01T02:54:34.328Z,3.03
2022-10-01T02:57:19.355Z,3.38
2022-10-01T02:59:47.089Z,3.27
2022-10-01T03:02:16.593Z,3.33
2022-10-01T03:04:44.394Z,3.25
2022-10-01T03:07:12.117Z,3.40
2022-10-01T03:09:39.892Z,3.70
2022-10-01T03:12:07.769Z,4.00
2022-10-01T03:14:35.496Z,4.10
2022-10-01T03:17:03.137Z,3.28
2022-10-01T03:19:32.157Z,3.53
2022-10-01T03:22:00.079Z,3.78
2022-10-01T03:24:27.765Z,3.83
2022-10-01T03:26:56.737Z,4.10
2022-10-01T03:29:24.676Z,4.15
2022-10-01T03:31:52.775Z,3.35
2022-10-01T03:34:21.183Z,2.95
2022-10-01T03:36:51.849Z,3.63
2022-10-01T03:39:19.911Z,3.33
2022-10-01T03:41:47.634Z,2.80
2022-10-01T03:44:15.418Z,2.60
2022-10-01T03:46:43.726Z,2.47
2022-10-01T03:49:11.563Z,2.00
2022-10-01T03:51:39.420Z,3.00
2022-10-01T03:54:09.522Z,1.67
2022-10-01T03:56:37.811Z,2.10
2022-10-01T03:59:05.487Z,1.70
2022-10-01T04:01:33.691Z,1.80
2022-10-01T04:04:02.073Z,1.70
2022-10-01T04:06:29.825Z,2.00
2022-10-01T04:08:57.737Z,1.50
2022-10-01T04:11:26.887Z,1.77
2022-10-01T04:13:54.603Z,1.50
2022-10-01T04:16:22.439Z,1.70
2022-10-01T04:18:50.193Z,1.55
2022-10-01T04:21:17.988Z,1.50
2022-10-01T04:23:45.639Z,1.67
2022-10-01T04:26:13.348Z,1.67
2022-10-01T04:28:45.080Z,1.88
2022-10-01T04:31:28.113Z,2.25
2022-10-01T04:33:57.946Z,2.08
2022-10-01T04:36:26.581Z,1.65
2022-10-01T04:38:58.190Z,1.50
2022-10-01T04:41:30.430Z,2.45
2022-10-01T04:44:00.565Z,1.65
2022-10-01T04:46:29.302Z,1.70
2022-10-01T04:48:57.031Z,1.40
2022-10-01T04:51:24.724Z,1.60
2022-10-01T04:53:52.369Z,1.45
2022-10-01T04:56:19.996Z,1.90
2022-10-01T04:58:48.508Z,1.80
2022-10-01T05:01:17.542Z,1.80
2022-10-01T05:03:45.390Z,1.80
2022-10-01T05:06:13.103Z,1.52
2022-10-01T05:08:40.798Z,1.65
2022-10-01T05:11:08.668Z,2.92
2022-10-01T05:13:36.422Z,1.40
2022-10-01T05:16:04.129Z,2.13
2022-10-01T05:18:33.115Z,1.65
2022-10-01T05:21:05.188Z,1.60
2022-10-01T05:23:33.218Z,2.10
2022-10-01T05:26:00.980Z,2.00
2022-10-01T05:28:28.648Z,1.33
2022-10-01T05:30:58.661Z,1.42
2022-10-01T05:33:26.710Z,1.20
2022-10-01T05:35:57.018Z,1.50
2022-10-01T05:38:24.858Z,1.38
2022-10-01T05:40:52.560Z,1.67
2022-10-01T05:43:20.248Z,2.00
2022-10-01T05:45:48.105Z,1.33
2022-10-01T05:48:15.753Z,1.20
2022-10-01T05:50:44.210Z,1.30
2022-10-01T05:53:13.995Z,1.30
2022-10-01T05:55:41.693Z,2.00
2022-10-01T05:58:11.039Z,1.65
2022-10-01T06:00:39.832Z,1.30
2022-10-01T06:03:08.178Z,1.35
2022-10-01T06:05:37.872Z,1.63
2022-10-01T06:08:06.711Z,1.70
2022-10-01T06:10:36.826Z,1.50
2022-10-01T06:13:06.351Z,1.67
2022-10-01T06:15:37.349Z,1.60
2022-10-01T06:18:05.229Z,1.33
2022-10-01T06:20:32.925Z,2.13
2022-10-01T06:23:01.043Z,1.50
2022-10-01T06:25:30.740Z,2.08
2022-10-01T06:28:00.858Z,2.00
2022-10-01T06:30:31.670Z,1.60
2022-10-01T06:33:02.673Z,1.70
2022-10-01T06:35:30.412Z,1.48
2022-10-01T06:37:58.154Z,1.00
2022-10-01T06:40:25.930Z,1.20
2022-10-01T06:42:56.718Z,0.90
2022-10-01T06:45:26.662Z,0.80
2022-10-01T06:47:55.630Z,0.90
2022-10-01T06:50:23.872Z,1.20
2022-10-01T06:52:50.733Z,1.20
2022-10-01T06:55:18.874Z,1.27
2022-10-01T06:57:47.312Z,1.33
2022-10-01T07:00:15.813Z,1.75
2022-10-01T07:02:44.989Z,1.23
2022-10-01T07:05:12.919Z,1.17
2022-10-01T07:07:40.771Z,1.67
2022-10-01T07:10:11.216Z,2.00
2022-10-01T07:12:39.559Z,1.67
2022-10-01T07:15:09.188Z,1.50
2022-10-01T07:17:45.928Z,1.88
2022-10-01T07:20:14.723Z,2.20
2022-10-01T07:22:42.797Z,1.58
2022-10-01T07:25:10.847Z,1.77
2022-10-01T07:27:39.035Z,3.00
2022-10-01T07:30:08.690Z,2.40
2022-10-01T07:32:36.384Z,2.40
2022-10-01T07:35:06.802Z,2.20
2022-10-01T07:37:34.524Z,1.80
2022-10-01T07:40:07.154Z,1.77
2022-10-01T07:42:35.308Z,1.92
2022-10-01T07:45:04.242Z,1.87
2022-10-01T07:47:32.220Z,2.33
2022-10-01T07:49:59.917Z,2.47
2022-10-01T07:52:30.236Z,2.35
2022-10-01T07:54:58.077Z,2.33
2022-10-01T07:57:25.710Z,2.70
2022-10-01T07:59:55.901Z,2.42
2022-10-01T08:02:24.050Z,2.65
2022-10-01T08:05:09.179Z,2.47
2022-10-01T08:07:38.256Z,2.53
2022-10-01T08:10:06.755Z,2.27
2022-10-01T08:12:34.459Z,2.50
2022-10-01T08:15:03.088Z,1.80
2022-10-01T08:17:30.896Z,2.40
2022-10-01T08:19:58.574Z,2.22
2022-10-01T08:22:26.318Z,1.70
2022-10-01T08:24:55.429Z,2.25
2022-10-01T08:27:24.877Z,1.60
2022-10-01T08:29:52.824Z,1.48
2022-10-01T08:32:21.741Z,1.50
2022-10-01T08:34:53.315Z,1.60
2022-10-01T08:37:28.096Z,1.38
2022-10-01T08:39:57.656Z,1.40
2022-10-01T08:42:52.082Z,1.70
2022-10-01T08:45:26.555Z,1.92
2022-10-01T08:48:02.912Z,1.80
2022-10-01T08:50:39.787Z,2.00
2022-10-01T08:53:16.244Z,2.67
2022-10-01T08:55:47.001Z,1.70
2022-10-01T08:58:22.798Z,1.70
2022-10-01T09:00:52.654Z,1.33
2022-10-01T09:03:20.943Z,1.60
2022-10-01T09:06:19.369Z,1.80
2022-10-01T09:09:14.302Z,1.80
2022-10-01T09:12:03.175Z,2.00
2022-10-01T09:14:44.971Z,1.70
2022-10-01T09:17:21.876Z,2.03
2022-10-01T09:20:12.346Z,2.13
2022-10-01T09:22:42.258Z,1.67
2022-10-01T09:25:17.946Z,1.70
2022-10-01T09:27:48.079Z,1.80
2022-10-01T09:30:19.444Z,1.92
2022-10-01T09:32:53.190Z,1.90
2022-10-01T09:35:30.854Z,1.92
2022-10-01T09:38:03.376Z,1.73
2022-10-01T09:40:35.830Z,1.87
2022-10-01T09:43:08.064Z,2.08
2022-10-01T09:45:36.443Z,1.63
2022-10-01T09:48:15.026Z,1.90
2022-10-01T09:50:50.388Z,1.75
2022-10-01T09:53:22.943Z,2.00
2022-10-01T09:55:55.173Z,1.98
2022-10-01T09:58:26.025Z,1.95
2022-10-01T10:00:55.893Z,1.70
2022-10-01T10:03:27.495Z,1.90
2022-10-01T10:05:55.681Z,2.60
2022-10-01T10:08:29.782Z,1.50
2022-10-01T10:11:00.545Z,1.70
2022-10-01T10:13:35.029Z,1.60
2022-10-01T10:16:10.958Z,1.75
2022-10-01T10:18:40.836Z,2.30
2022-10-01T10:21:16.271Z,2.30
2022-10-01T10:23:50.274Z,2.00
2022-10-01T10:26:23.479Z,2.58
2022-10-01T10:28:52.664Z,1.58
2022-10-01T10:31:23.976Z,1.43
2022-10-01T10:33:55.514Z,1.45
2022-10-01T10:36:28.878Z,2.30
2022-10-01T10:38:57.601Z,1.85
2022-10-01T10:41:27.157Z,1.50
2022-10-01T10:44:00.507Z,1.53
2022-10-01T10:46:32.963Z,1.40
2022-10-01T10:49:06.919Z,1.42
2022-10-01T10:51:46.158Z,2.00
2022-10-01T10:54:23.180Z,1.50
2022-10-01T10:57:02.233Z,1.67
2022-10-01T10:59:33.752Z,2.05
2022-10-01T11:02:04.271Z,1.63
2022-10-01T11:04:42.701Z,2.92
2022-10-01T11:07:13.302Z,2.33
2022-10-01T11:10:00.467Z,3.10
2022-10-01T11:12:44.040Z,1.52
2022-10-01T11:15:33.848Z,2.00
2022-10-01T11:18:24.714Z,1.70
2022-10-01T11:21:00.747Z,1.60
2022-10-01T11:23:46.087Z,1.90
2022-10-01T11:26:23.008Z,1.85
2022-10-01T11:29:04.125Z,1.60
2022-10-01T11:31:39.222Z,1.67
2022-10-01T11:34:29.770Z,2.13
2022-10-01T11:37:04.075Z,1.60
2022-10-01T11:39:35.219Z,1.63
2022-10-01T11:42:08.893Z,1.73
2022-10-01T11:44:42.307Z,1.40
2022-10-01T11:47:16.406Z,1.90
2022-10-01T11:49:57.898Z,1.70
2022-10-01T11:52:34.768Z,1.77
2022-10-01T11:55:30.764Z,1.60
2022-10-01T11:58:21.501Z,2.03
2022-10-01T12:01:00.170Z,1.77
2022-10-01T12:03:38.577Z,1.43
2022-10-01T12:06:09.296Z,1.88
2022-10-01T12:08:38.750Z,1.52
2022-10-01T12:11:16.251Z,1.73
2022-10-01T12:13:55.193Z,1.90
2022-10-01T12:16:32.102Z,1.43
2022-10-01T12:19:04.492Z,2.08
2022-10-01T12:21:38.200Z,1.50
2022-10-01T12:24:11.857Z,1.90
2022-10-01T12:26:50.508Z,1.40
2022-10-01T12:29:24.863Z,1.50
2022-10-01T12:31:58.663Z,1.33
2022-10-01T12:34:39.429Z,2.35
2022-10-01T12:37:19.291Z,1.58
2022-10-01T12:40:02.391Z,1.65
2022-10-01T12:42:53.853Z,1.60
2022-10-01T12:45:29.174Z,1.58
2022-10-01T12:48:06.545Z,2.17
2022-10-01T12:50:50.054Z,1.45
2022-10-01T12:53:26.735Z,1.50
2022-10-01T12:56:10.709Z,1.80
2022-10-01T12:59:06.412Z,1.25
2022-10-01T13:01:45.285Z,1.70
2022-10-01T13:04:38.356Z,1.42
2022-10-01T13:07:25.766Z,1.45
2022-10-01T13:10:04.749Z,1.37
2022-10-01T13:12:49.679Z,1.40
2022-10-01T13:15:22.333Z,1.48
2022-10-01T13:17:53.483Z,1.30
2022-10-01T13:20:29.011Z,1.88
2022-10-01T13:23:05.225Z,1.43
2022-10-01T13:25:39.663Z,2.10
2022-10-01T13:28:16.073Z,1.48
2022-10-01T13:30:55.101Z,1.83
2022-10-01T13:33:26.097Z,1.75
2022-10-01T13:35:56.631Z,1.63
2022-10-01T13:38:32.012Z,1.48
2022-10-01T13:41:01.797Z,2.05
2022-10-01T13:43:31.681Z,1.20
2022-10-01T13:46:08.797Z,2.00
2022-10-01T13:48:38.431Z,1.60
2022-10-01T13:51:10.643Z,1.65
2022-10-01T13:53:50.007Z,2.15
2022-10-01T13:56:35.188Z,1.58
2022-10-01T13:59:03.648Z,2.30
2022-10-01T14:01:39.922Z,2.40
2022-10-01T14:04:21.034Z,1.38
2022-10-01T14:06:53.321Z,1.50
2022-10-01T14:09:25.462Z,1.90
2022-10-01T14:12:13.580Z,1.70
2022-10-01T14:15:02.325Z,2.10
2022-10-01T14:17:32.970Z,1.60
2022-10-01T14:20:01.970Z,2.03
2022-10-01T14:22:51.708Z,1.67
2022-10-01T14:25:31.799Z,1.60
2022-10-01T14:28:21.558Z,1.67
2022-10-01T14:30:55.524Z,1.63
2022-10-01T14:33:46.147Z,1.73
2022-10-01T14:36:17.263Z,1.92
2022-10-01T14:38:44.972Z,1.33
2022-10-01T14:41:19.979Z,2.07
2022-10-01T14:43:48.115Z,1.48
2022-10-01T14:46:17.996Z,1.48
2022-10-01T14:48:46.096Z,1.55
2022-10-01T14:51:29.214Z,1.45
2022-10-01T14:54:00.340Z,1.47
2022-10-01T14:56:30.134Z,1.27
2022-10-01T14:59:02.742Z,2.45
2022-10-01T15:01:30.745Z,1.48
2022-10-01T15:03:58.501Z,1.80
2022-10-01T15:06:29.995Z,1.90
2022-10-01T15:09:12.365Z,1.33
2022-10-01T15:11:44.650Z,1.85
2022-10-01T15:14:18.713Z,1.50
2022-10-01T15:16:47.016Z,1.73
2022-10-01T15:19:18.003Z,1.33
2022-10-01T15:21:50.907Z,1.20
2022-10-01T15:24:25.939Z,1.58
2022-10-01T15:26:56.740Z,1.65
2022-10-01T15:29:29.996Z,1.30
2022-10-01T15:32:02.949Z,1.10
2022-10-01T15:34:31.489Z,1.85
2022-10-01T15:37:01.008Z,1.58
2022-10-01T15:39:34.214Z,1.40
2022-10-01T15:42:08.804Z,1.45
2022-10-01T15:44:45.903Z,1.53
2022-10-01T15:47:27.995Z,1.30
2022-10-01T15:50:07.795Z,1.45
2022-10-01T15:52:53.112Z,1.60
2022-10-01T15:55:25.267Z,1.70
2022-10-01T15:57:57.812Z,1.53
2022-10-01T16:00:27.914Z,1.45
2022-10-01T16:02:57.383Z,1.58
2022-10-01T16:05:27.814Z,1.40
2022-10-01T16:07:58.215Z,1.27
2022-10-01T16:10:35.144Z,0.90
2022-10-01T16:13:39.318Z,1.58
2022-10-01T16:16:23.286Z,1.35
2022-10-01T16:18:56.069Z,2.05
2022-10-01T16:21:24.430Z,1.30
2022-10-01T16:23:53.970Z,1.60
2022-10-01T16:26:39.645Z,1.50
2022-10-01T16:29:21.153Z,0.95
2022-10-01T16:31:48.969Z,1.42
2022-10-01T16:34:18.793Z,1.20
2022-10-01T16:36:47.101Z,1.30
2022-10-01T16:39:15.291Z,0.95
2022-10-01T16:41:45.086Z,1.10
2022-10-01T16:44:15.139Z,1.75
2022-10-01T16:46:43.336Z,1.48
2022-10-01T16:49:14.830Z,1.10
2022-10-01T16:51:43.295Z,1.25
2022-10-01T16:54:21.870Z,1.38
2022-10-01T16:56:50.617Z,1.20
2022-10-01T16:59:22.278Z,1.20
2022-10-01T17:01:51.242Z,2.07
2022-10-01T17:04:19.310Z,1.48
2022-10-01T17:06:47.539Z,1.50
2022-10-01T17:09:15.270Z,1.30
2022-10-01T17:11:43.899Z,1.17
2022-10-01T17:14:16.885Z,1.63
2022-10-01T17:16:46.539Z,1.60
2022-10-01T17:19:14.706Z,2.08
2022-10-01T17:21:42.823Z,1.65
2022-10-01T17:24:11.371Z,2.22
2022-10-01T17:26:40.646Z,1.63
2022-10-01T17:29:08.979Z,1.60
2022-10-01T17:31:37.665Z,1.63
2022-10-01T17:34:06.748Z,1.50
2022-10-01T17:36:36.312Z,1.92
2022-10-01T17:39:04.954Z,1.67
2022-10-01T17:41:32.667Z,1.55
2022-10-01T17:44:00.673Z,1.65
2022-10-01T17:46:29.695Z,2.10
2022-10-01T17:48:57.632Z,2.03
2022-10-01T17:51:26.709Z,1.73
2022-10-01T17:53:57.833Z,1.98
2022-10-01T17:56:25.843Z,2.05
2022-10-01T17:58:54.296Z,2.83
2022-10-01T18:01:22.954Z,2.45
2022-10-01T18:03:54.720Z,1.97
2022-10-01T18:06:22.501Z,2.15
2022-10-01T18:08:55.647Z,2.10
2022-10-01T18:11:25.116Z,1.50
2022-10-01T18:13:52.977Z,2.13
2022-10-01T18:16:20.778Z,2.20
2022-10-01T18:19:51.356Z,3.88
2022-10-01T18:21:38.090Z,8.85
2022-10-01T18:24:07.615Z,8.30
2022-10-01T18:26:36.080Z,10.55
2022-10-01T18:29:04.148Z,9.40
2022-10-01T18:31:35.885Z,11.20
2022-10-01T18:34:12.236Z,5.97
2022-10-01T18:36:48.028Z,6.50
2022-10-01T18:39:22.222Z,5.22
2022-10-01T18:41:51.126Z,5.10
2022-10-01T18:44:20.783Z,5.40
2022-10-01T18:47:04.516Z,6.45
2022-10-01T18:50:03.104Z,2.92
2022-10-01T18:52:40.344Z,2.83
2022-10-01T18:55:30.289Z,2.10
2022-10-01T18:58:14.993Z,3.60
2022-10-01T19:00:48.565Z,2.70
2022-10-01T19:03:44.456Z,2.30
2022-10-01T19:06:32.586Z,2.38
2022-10-01T19:09:18.941Z,1.60
2022-10-01T19:11:58.691Z,1.45
2022-10-01T19:14:42.160Z,1.77
2022-10-01T19:17:23.784Z,1.30
2022-10-01T19:20:04.461Z,1.75
2022-10-01T19:22:43.562Z,2.13
2022-10-01T19:25:20.531Z,2.38
2022-10-01T19:28:01.029Z,1.98
2022-10-01T19:30:32.991Z,1.90
2022-10-01T19:33:04.399Z,2.25
2022-10-01T19:35:34.617Z,1.57
2022-10-01T19:38:05.581Z,1.80
2022-10-01T19:40:40.337Z,1.83
2022-10-01T19:43:14.722Z,1.67
2022-10-01T19:45:49.369Z,1.50
2022-10-01T19:48:22.421Z,1.47
2022-10-01T19:50:55.876Z,1.52
2022-10-01T19:53:27.987Z,1.70
2022-10-01T19:55:58.703Z,1.90
2022-10-01T19:58:30.517Z,1.20
2022-10-01T20:01:01.031Z,1.20
2022-10-01T20:03:37.143Z,1.08
2022-10-01T20:06:09.269Z,1.55
2022-10-01T20:08:42.897Z,1.40
2022-10-01T20:11:19.763Z,1.30
2022-10-01T20:14:37.128Z,1.50
2022-10-01T20:17:13.823Z,1.85
2022-10-01T20:19:46.992Z,1.33
2022-10-01T20:22:22.535Z,1.23
2022-10-01T20:24:59.517Z,1.50
2022-10-01T20:27:38.014Z,1.70
2022-10-01T20:30:09.477Z,1.60
2022-10-01T20:32:46.129Z,1.40
2022-10-01T20:35:26.238Z,1.50
2022-10-01T20:38:12.270Z,1.40
2022-10-01T20:40:49.326Z,1.60
2022-10-01T20:43:20.748Z,1.20
2022-10-01T20:45:52.709Z,1.60
2022-10-01T20:48:23.692Z,1.02
2022-10-01T20:50:53.881Z,1.20
2022-10-01T20:53:30.267Z,1.73
2022-10-01T20:56:04.200Z,1.20
2022-10-01T20:58:36.332Z,1.02
2022-10-01T21:01:12.634Z,1.25
2022-10-01T21:03:44.459Z,1.25
2022-10-01T21:06:17.195Z,1.30
2022-10-01T21:08:50.044Z,1.17
2022-10-01T21:11:26.615Z,1.40
2022-10-01T21:13:59.677Z,1.00
2022-10-01T21:17:06.099Z,1.02
2022-10-01T21:19:47.790Z,1.23
2022-10-01T21:22:29.180Z,0.90
2022-10-01T21:25:01.162Z,1.38
2022-10-01T21:27:49.130Z,1.23
2022-10-01T21:30:18.815Z,1.33
2022-10-01T21:33:14.377Z,1.33
2022-10-01T21:35:52.287Z,1.48
2022-10-01T21:38:31.000Z,1.13
2022-10-01T21:41:11.619Z,1.20
2022-10-01T21:43:56.545Z,1.02
2022-10-01T21:46:33.196Z,1.67
2022-10-01T21:49:09.728Z,1.00
2022-10-01T21:51:52.094Z,1.20
2022-10-01T21:54:39.840Z,0.88
2022-10-01T21:57:20.025Z,1.30
2022-10-01T22:00:05.675Z,0.90
2022-10-01T22:02:43.662Z,1.30
2022-10-01T22:05:24.506Z,1.05
2022-10-01T22:08:00.233Z,1.20
2022-10-01T22:10:33.472Z,1.27
2022-10-01T22:13:05.230Z,1.33
2022-10-01T22:15:39.476Z,1.10
2022-10-01T22:18:12.257Z,1.35
2022-10-01T22:20:43.620Z,1.55
2022-10-01T22:23:15.603Z,1.25
2022-10-01T22:25:51.666Z,1.67
2022-10-01T22:28:24.503Z,1.40
2022-10-01T22:30:54.912Z,1.45
2022-10-01T22:33:29.714Z,1.15
2022-10-01T22:36:06.908Z,1.30
2022-10-01T22:38:39.523Z,1.30
2022-10-01T22:41:13.614Z,1.10
2022-10-01T22:43:41.773Z,1.40
2022-10-01T22:46:29.809Z,0.95
2022-10-01T22:49:03.170Z,1.13
2022-10-01T22:51:46.554Z,1.30
2022-10-01T22:54:26.654Z,1.10
2022-10-01T22:57:04.816Z,1.75
2022-10-01T22:59:42.156Z,1.25
2022-10-01T23:02:18.363Z,1.00
2022-10-01T23:05:03.071Z,1.17
2022-10-01T23:07:40.980Z,1.88
2022-10-01T23:10:11.378Z,1.35
2022-10-01T23:12:49.727Z,1.50
2022-10-01T23:15:29.041Z,2.17
2022-10-01T23:18:06.812Z,1.13
2022-10-01T23:20:39.837Z,1.48
2022-10-01T23:23:19.197Z,1.13
2022-10-01T23:26:03.657Z,1.10
2022-10-01T23:28:41.334Z,1.23
2022-10-01T23:31:17.045Z,2.20
2022-10-01T23:33:59.130Z,1.33
2022-10-01T23:36:36.183Z,1.63
2022-10-01T23:39:30.842Z,1.65
2022-10-01T23:42:05.253Z,2.05
2022-10-01T23:44:37.943Z,1.33
2022-10-01T23:47:10.746Z,1.00
2022-10-01T23:49:43.415Z,1.33
2022-10-01T23:52:17.965Z,1.20
2022-10-01T23:54:50.366Z,1.90
2022-10-01T23:57:22.481Z,1.40
2022-10-01T23:59:59.414Z,1.38
